createdAt,value
2019-02-07T00:00:13.541Z,13.27
2019-02-07T00:02:43.482Z,13.63
2019-02-07T00:05:13.533Z,14.00
2019-02-07T00:07:43.429Z,14.73
2019-02-07T00:10:14.217Z,13.93
2019-02-07T00:12:44.385Z,17.67
2019-02-07T00:15:15.735Z,18.63
2019-02-07T00:17:45.831Z,16.77
2019-02-07T00:20:16.138Z,15.27
2019-02-07T00:22:46.125Z,16.23
2019-02-07T00:25:16.172Z,18.53
2019-02-07T00:27:46.009Z,17.90
2019-02-07T00:30:17.037Z,20.27
2019-02-07T00:32:47.089Z,21.63
2019-02-07T00:35:17.174Z,20.93
2019-02-07T00:37:47.300Z,21.97
2019-02-07T00:40:17.525Z,26.40
2019-02-07T00:42:47.834Z,21.87
2019-02-07T00:45:18.675Z,19.03
2019-02-07T00:47:49.393Z,22.53
2019-02-07T00:50:19.530Z,23.50
2019-02-07T00:52:49.540Z,19.37
2019-02-07T00:55:19.476Z,20.30
2019-02-07T00:57:49.778Z,19.57
2019-02-07T01:00:21.981Z,18.23
2019-02-07T01:02:52.101Z,20.07
2019-02-07T01:05:22.679Z,20.80
2019-02-07T01:07:52.929Z,20.97
2019-02-07T01:10:24.542Z,18.10
2019-02-07T01:12:54.500Z,18.17
2019-02-07T01:15:25.294Z,15.63
2019-02-07T01:17:55.533Z,18.73
2019-02-07T01:20:25.445Z,19.23
2019-02-07T01:22:55.746Z,15.07
2019-02-07T01:25:25.966Z,16.57
2019-02-07T01:27:56.224Z,19.40
2019-02-07T01:30:26.116Z,17.17
2019-02-07T01:32:56.160Z,16.60
2019-02-07T01:35:26.085Z,15.83
2019-02-07T01:37:56.073Z,15.93
2019-02-07T01:40:26.013Z,14.93
2019-02-07T01:42:56.004Z,15.57
2019-02-07T01:45:26.345Z,13.80
2019-02-07T01:47:56.236Z,17.20
2019-02-07T01:50:26.277Z,14.30
2019-02-07T01:52:56.305Z,15.57
2019-02-07T01:55:26.513Z,16.10
2019-02-07T01:57:56.586Z,15.00
2019-02-07T02:00:26.726Z,15.53
2019-02-07T02:02:56.659Z,14.30
2019-02-07T02:05:26.549Z,15.67
2019-02-07T02:07:56.445Z,14.70
2019-02-07T02:10:27.896Z,13.13
2019-02-07T02:12:58.145Z,15.60
2019-02-07T02:15:28.052Z,13.00
2019-02-07T02:17:57.895Z,13.53
2019-02-07T02:20:28.205Z,14.70
2019-02-07T02:22:58.107Z,14.50
2019-02-07T02:25:30.020Z,11.57
2019-02-07T02:27:59.668Z,12.53
2019-02-07T02:30:31.854Z,10.87
2019-02-07T02:33:02.066Z,10.63
2019-02-07T02:35:31.901Z,12.43
2019-02-07T02:38:01.779Z,13.17
2019-02-07T02:40:31.709Z,12.40
2019-02-07T02:43:01.708Z,10.10
2019-02-07T02:45:37.412Z,11.83
2019-02-07T02:48:03.297Z,11.83
2019-02-07T02:50:33.225Z,10.10
2019-02-07T02:53:03.321Z,12.80
2019-02-07T02:55:38.344Z,12.03
2019-02-07T02:58:08.564Z,11.47
2019-02-07T03:00:56.808Z,11.70
2019-02-07T03:03:44.235Z,11.27
2019-02-07T03:06:35.958Z,10.83
2019-02-07T03:09:29.397Z,10.37
2019-02-07T03:12:19.251Z,10.50
2019-02-07T03:15:20.117Z,13.47
2019-02-07T03:18:12.277Z,11.40
2019-02-07T03:21:01.041Z,10.30
2019-02-07T03:24:05.147Z,10.60
2019-02-07T03:26:52.674Z,10.40
2019-02-07T03:29:48.313Z,12.70
2019-02-07T03:32:35.824Z,12.97
2019-02-07T03:35:32.638Z,12.50
2019-02-07T03:38:27.561Z,13.17
2019-02-07T03:41:19.472Z,13.77
2019-02-07T03:44:08.223Z,10.10
2019-02-07T03:47:06.195Z,9.93
2019-02-07T03:49:46.449Z,12.33
2019-02-07T03:52:33.384Z,13.80
2019-02-07T03:55:23.872Z,12.10
2019-02-07T03:58:11.485Z,10.20
2019-02-07T04:01:00.368Z,12.00
2019-02-07T04:03:41.416Z,10.97
2019-02-07T04:06:30.278Z,10.73
2019-02-07T04:09:11.022Z,10.63
2019-02-07T04:11:59.538Z,14.30
2019-02-07T04:14:57.669Z,13.53
2019-02-07T04:17:54.718Z,13.83
2019-02-07T04:20:46.341Z,12.27
2019-02-07T04:23:44.617Z,12.37
2019-02-07T04:26:34.320Z,13.20
2019-02-07T04:29:16.498Z,12.53
2019-02-07T04:32:04.433Z,12.27
2019-02-07T04:35:08.449Z,12.97
2019-02-07T04:37:44.717Z,13.07
2019-02-07T04:40:49.057Z,12.97
2019-02-07T04:43:30.514Z,16.60
2019-02-07T04:46:27.149Z,11.03
2019-02-07T04:49:18.569Z,12.87
2019-02-07T04:52:08.349Z,15.00
2019-02-07T04:54:57.196Z,13.10
2019-02-07T04:57:46.069Z,11.53
2019-02-07T05:00:38.281Z,12.50
2019-02-07T05:03:28.374Z,12.00
2019-02-07T05:06:07.853Z,10.90
2019-02-07T05:08:56.743Z,15.00
2019-02-07T05:11:36.430Z,10.13
2019-02-07T05:14:24.466Z,12.50
2019-02-07T05:17:22.129Z,12.70
2019-02-07T05:20:10.990Z,12.20
2019-02-07T05:22:58.516Z,9.93
2019-02-07T05:25:50.653Z,12.30
2019-02-07T05:28:39.505Z,11.53
2019-02-07T05:31:46.924Z,13.23
2019-02-07T05:34:34.564Z,10.53
2019-02-07T05:37:27.101Z,9.83
2019-02-07T05:40:18.181Z,11.53
2019-02-07T05:43:22.193Z,12.60
2019-02-07T05:46:23.137Z,12.97
2019-02-07T05:49:14.784Z,13.83
2019-02-07T05:51:57.165Z,11.43
2019-02-07T05:54:51.859Z,12.80
2019-02-07T05:57:39.182Z,15.10
2019-02-07T06:00:47.493Z,13.80
2019-02-07T06:03:34.956Z,12.77
2019-02-07T06:06:25.548Z,14.53
2019-02-07T06:09:09.382Z,15.40
2019-02-07T06:11:57.118Z,16.73
2019-02-07T06:14:41.645Z,12.70
2019-02-07T06:17:36.657Z,16.73
2019-02-07T06:20:23.249Z,15.33
2019-02-07T06:23:03.812Z,12.97
2019-02-07T06:25:58.650Z,14.37
2019-02-07T06:28:54.023Z,11.50
2019-02-07T06:31:49.021Z,13.67
2019-02-07T06:34:37.777Z,10.77
2019-02-07T06:37:29.605Z,13.50
2019-02-07T06:40:17.541Z,8.90
2019-02-07T06:43:11.852Z,10.83
2019-02-07T06:45:51.800Z,9.97
2019-02-07T06:48:40.694Z,10.40
2019-02-07T06:51:28.261Z,11.80
2019-02-07T06:54:15.789Z,14.73
2019-02-07T06:57:20.741Z,10.73
2019-02-07T07:00:12.549Z,10.43
2019-02-07T07:03:02.595Z,9.47
2019-02-07T07:05:54.183Z,9.83
2019-02-07T07:08:55.301Z,9.50
2019-02-07T07:11:49.997Z,8.17
2019-02-07T07:14:32.505Z,7.70
2019-02-07T07:17:25.500Z,8.17
2019-02-07T07:20:24.976Z,8.73
2019-02-07T07:23:16.792Z,8.90
2019-02-07T07:26:09.488Z,8.37
2019-02-07T07:28:56.249Z,8.47
2019-02-07T07:31:45.309Z,9.47
2019-02-07T07:34:37.144Z,9.50
2019-02-07T07:37:17.701Z,8.43
2019-02-07T07:40:15.577Z,6.90
2019-02-07T07:43:07.297Z,8.60
2019-02-07T07:45:57.893Z,8.50
2019-02-07T07:49:07.034Z,7.90
2019-02-07T07:51:54.659Z,6.30
2019-02-07T07:54:34.835Z,10.10
2019-02-07T07:57:26.741Z,7.47
2019-02-07T08:00:24.449Z,8.47
2019-02-07T08:03:25.267Z,11.03
2019-02-07T08:06:08.162Z,11.67
2019-02-07T08:08:55.686Z,9.27
2019-02-07T08:11:47.414Z,7.37
2019-02-07T08:14:42.001Z,7.97
2019-02-07T08:17:20.622Z,7.83
2019-02-07T08:20:08.045Z,8.93
2019-02-07T08:23:05.940Z,8.67
2019-02-07T08:25:53.467Z,7.93
2019-02-07T08:28:44.510Z,6.60
2019-02-07T08:31:28.826Z,8.30
2019-02-07T08:34:16.252Z,7.37
2019-02-07T08:37:13.992Z,8.50
2019-02-07T08:39:53.224Z,7.73
2019-02-07T08:42:48.124Z,8.60
2019-02-07T08:45:46.258Z,8.43
2019-02-07T08:48:41.406Z,11.50
2019-02-07T08:51:42.372Z,7.03
2019-02-07T08:54:29.795Z,8.30
2019-02-07T08:57:36.776Z,8.97
2019-02-07T09:00:39.771Z,6.13
2019-02-07T09:03:25.947Z,6.40
2019-02-07T09:06:13.797Z,6.97
2019-02-07T09:08:55.149Z,11.33
2019-02-07T09:11:40.142Z,7.23
2019-02-07T09:14:18.221Z,6.90
2019-02-07T09:17:09.847Z,6.20
2019-02-07T09:19:58.906Z,6.20
2019-02-07T09:23:05.892Z,7.87
2019-02-07T09:26:03.476Z,9.73
2019-02-07T09:28:52.309Z,10.40
2019-02-07T09:31:47.136Z,8.07
2019-02-07T09:34:52.141Z,8.73
2019-02-07T09:37:59.226Z,7.43
2019-02-07T09:40:56.889Z,8.53
2019-02-07T09:43:48.927Z,6.93
2019-02-07T09:46:36.890Z,7.70
2019-02-07T09:49:23.877Z,8.87
2019-02-07T09:52:15.714Z,7.20
2019-02-07T09:55:07.554Z,7.83
2019-02-07T09:58:11.849Z,6.43
2019-02-07T10:01:07.158Z,7.93
2019-02-07T10:03:49.461Z,7.90
2019-02-07T10:06:27.490Z,6.70
2019-02-07T10:09:15.712Z,7.07
2019-02-07T10:12:00.188Z,8.50
2019-02-07T10:14:47.585Z,7.40
2019-02-07T10:17:36.545Z,5.80
2019-02-07T10:20:29.122Z,5.80
2019-02-07T10:23:16.927Z,8.83
2019-02-07T10:26:02.124Z,5.67
2019-02-07T10:28:49.929Z,6.37
2019-02-07T10:31:40.246Z,7.40
2019-02-07T10:34:27.849Z,8.40
2019-02-07T10:37:12.849Z,8.57
2019-02-07T10:40:10.971Z,7.03
2019-02-07T10:42:58.696Z,6.33
2019-02-07T10:45:59.969Z,5.93
2019-02-07T10:48:51.593Z,8.53
2019-02-07T10:51:40.658Z,8.10
2019-02-07T10:54:29.609Z,6.77
2019-02-07T10:57:18.065Z,7.83
2019-02-07T11:00:15.728Z,5.47
2019-02-07T11:03:16.773Z,4.30
2019-02-07T11:06:08.830Z,5.33
2019-02-07T11:09:02.199Z,6.13
2019-02-07T11:11:54.976Z,4.00
2019-02-07T11:14:42.445Z,5.07
2019-02-07T11:17:31.279Z,5.13
2019-02-07T11:20:26.226Z,4.43
2019-02-07T11:23:21.097Z,3.30
2019-02-07T11:26:18.761Z,6.17
2019-02-07T11:29:13.893Z,4.57
2019-02-07T11:32:14.909Z,5.63
2019-02-07T11:35:07.045Z,4.53
2019-02-07T11:38:04.837Z,5.37
2019-02-07T11:40:56.766Z,5.87
2019-02-07T11:43:44.535Z,4.17
2019-02-07T11:46:42.469Z,7.60
2019-02-07T11:49:34.704Z,4.50
2019-02-07T11:52:17.217Z,6.20
2019-02-07T11:55:11.604Z,5.63
2019-02-07T11:57:53.680Z,8.73
2019-02-07T12:00:37.821Z,5.07
2019-02-07T12:03:35.489Z,4.40
2019-02-07T12:06:33.565Z,3.23
2019-02-07T12:09:30.201Z,4.30
2019-02-07T12:12:24.793Z,6.10
2019-02-07T12:15:12.219Z,4.43
2019-02-07T12:17:59.537Z,6.13
2019-02-07T12:20:49.113Z,3.23
2019-02-07T12:23:40.737Z,4.67
2019-02-07T12:26:38.909Z,5.97
2019-02-07T12:29:39.649Z,3.23
2019-02-07T12:32:26.039Z,4.67
2019-02-07T12:35:08.865Z,6.73
2019-02-07T12:37:47.273Z,6.17
2019-02-07T12:40:34.932Z,4.70
2019-02-07T12:43:26.833Z,4.53
2019-02-07T12:46:06.681Z,7.83
2019-02-07T12:48:56.478Z,5.30
2019-02-07T12:51:48.389Z,8.40
2019-02-07T12:54:40.113Z,5.00
2019-02-07T12:57:27.667Z,7.13
2019-02-07T13:00:15.065Z,5.57
2019-02-07T13:03:09.786Z,5.40
2019-02-07T13:05:52.373Z,6.70
2019-02-07T13:08:40.128Z,6.17
2019-02-07T13:11:30.289Z,6.40
2019-02-07T13:14:10.554Z,8.50
2019-02-07T13:16:58.081Z,8.67
2019-02-07T13:19:51.769Z,5.93
2019-02-07T13:22:39.292Z,8.10
2019-02-07T13:25:27.765Z,10.37
2019-02-07T13:28:25.501Z,7.53
2019-02-07T13:31:07.320Z,11.00
2019-02-07T13:33:57.060Z,12.57
2019-02-07T13:36:45.810Z,11.73
2019-02-07T13:39:37.428Z,12.70
2019-02-07T13:42:23.938Z,10.47
2019-02-07T13:45:24.673Z,10.53
2019-02-07T13:48:16.293Z,11.77
2019-02-07T13:51:24.551Z,10.37
2019-02-07T13:54:12.059Z,10.70
2019-02-07T13:57:14.481Z,9.30
2019-02-07T14:00:18.213Z,7.90
2019-02-07T14:03:10.067Z,9.70
2019-02-07T14:05:57.362Z,8.83
2019-02-07T14:08:52.569Z,12.83
2019-02-07T14:11:41.532Z,10.47
2019-02-07T14:14:32.046Z,10.07
2019-02-07T14:17:19.453Z,13.03
2019-02-07T14:20:26.970Z,12.07
2019-02-07T14:23:05.770Z,12.50
2019-02-07T14:25:49.223Z,12.90
2019-02-07T14:28:43.304Z,12.90
2019-02-07T14:31:49.251Z,13.13
2019-02-07T14:34:44.134Z,9.80
2019-02-07T14:37:36.196Z,14.57
2019-02-07T14:40:23.193Z,13.20
2019-02-07T14:43:12.167Z,14.53
2019-02-07T14:45:51.169Z,11.00
2019-02-07T14:48:25.188Z,8.53
2019-02-07T14:50:55.921Z,13.07
2019-02-07T14:53:25.769Z,7.70
2019-02-07T14:55:55.767Z,9.00
2019-02-07T14:58:25.601Z,10.23
2019-02-07T15:00:55.490Z,9.10
2019-02-07T15:03:25.837Z,9.43
2019-02-07T15:05:55.726Z,5.93
2019-02-07T15:08:25.744Z,10.13
2019-02-07T15:10:55.561Z,9.03
2019-02-07T15:13:25.568Z,10.40
2019-02-07T15:15:57.373Z,12.93
2019-02-07T15:18:27.021Z,11.60
2019-02-07T15:20:57.069Z,12.10
2019-02-07T15:23:26.853Z,10.23
2019-02-07T15:25:56.697Z,12.27
2019-02-07T15:28:26.588Z,9.00
2019-02-07T15:30:56.433Z,11.90
2019-02-07T15:33:26.317Z,9.60
2019-02-07T15:35:56.226Z,9.43
2019-02-07T15:38:27.089Z,14.00
2019-02-07T15:40:57.367Z,13.50
2019-02-07T15:43:27.322Z,8.93
2019-02-07T15:49:44.863Z,13.40
2019-02-07T15:57:49.869Z,17.77
2019-02-07T16:00:29.482Z,13.83
2019-02-07T16:03:33.042Z,15.50
2019-02-07T16:06:59.222Z,17.73
2019-02-07T16:10:33.449Z,15.47
2019-02-07T16:17:36.811Z,16.53
2019-02-07T16:20:33.884Z,18.33
2019-02-07T16:23:07.038Z,24.63
2019-02-07T16:25:46.205Z,21.33
2019-02-07T16:29:21.761Z,21.13
2019-02-07T16:32:14.296Z,21.07
2019-02-07T16:35:26.173Z,19.00
2019-02-07T16:42:58.240Z,18.60
2019-02-07T16:45:25.213Z,19.30
2019-02-07T16:52:33.579Z,20.13
2019-02-07T16:59:26.336Z,24.27
2019-02-07T17:03:15.750Z,24.33
2019-02-07T17:06:37.725Z,23.83
2019-02-07T17:10:21.465Z,29.03
2019-02-07T17:13:16.925Z,27.00
2019-02-07T17:16:26.431Z,28.13
2019-02-07T17:29:23.353Z,26.90
2019-02-07T17:36:09.805Z,34.50
2019-02-07T17:39:31.784Z,33.73
2019-02-07T17:43:04.915Z,34.97
2019-02-07T17:46:33.672Z,39.60
2019-02-07T17:50:21.677Z,48.07
2019-02-07T17:53:44.536Z,40.37
2019-02-07T17:57:16.282Z,46.47
2019-02-07T18:00:39.783Z,46.53
2019-02-07T18:04:57.991Z,57.50
2019-02-07T18:06:46.443Z,56.53
2019-02-07T18:09:16.345Z,66.13
2019-02-07T18:11:46.371Z,77.30
2019-02-07T18:14:16.814Z,61.63
2019-02-07T18:16:46.710Z,71.00
2019-02-07T18:19:16.749Z,70.23
2019-02-07T18:21:46.677Z,85.90
2019-02-07T18:24:16.728Z,84.50
2019-02-07T18:26:46.701Z,75.90
2019-02-07T18:29:16.997Z,71.13
2019-02-07T18:31:46.935Z,66.00
2019-02-07T18:34:16.825Z,62.83
2019-02-07T18:36:46.794Z,74.83
2019-02-07T18:39:16.753Z,66.43
2019-02-07T18:41:46.781Z,64.27
2019-02-07T18:44:16.890Z,76.23
2019-02-07T18:46:46.829Z,65.77
2019-02-07T18:49:17.049Z,63.93
2019-02-07T18:51:46.878Z,63.27
2019-02-07T18:54:17.094Z,57.83
2019-02-07T18:56:47.322Z,57.73
2019-02-07T18:59:18.471Z,63.47
2019-02-07T19:01:48.580Z,60.17
2019-02-07T19:04:18.559Z,59.63
2019-02-07T19:06:48.368Z,61.23
2019-02-07T19:09:18.197Z,58.03
2019-02-07T19:11:48.399Z,55.73
2019-02-07T19:14:18.441Z,59.27
2019-02-07T19:16:48.545Z,60.27
2019-02-07T19:19:18.523Z,58.47
2019-02-07T19:21:56.883Z,56.90
2019-02-07T19:24:20.125Z,54.93
2019-02-07T19:26:50.468Z,57.23
2019-02-07T19:29:20.557Z,58.17
2019-02-07T19:31:50.458Z,51.33
2019-02-07T19:34:20.286Z,53.80
2019-02-07T19:36:51.913Z,51.63
2019-02-07T19:39:21.866Z,53.43
2019-02-07T19:41:52.069Z,54.07
2019-02-07T19:44:21.994Z,53.07
2019-02-07T19:46:52.101Z,51.57
2019-02-07T19:49:22.025Z,42.97
2019-02-07T19:51:52.134Z,50.63
2019-02-07T19:54:22.074Z,48.37
2019-02-07T19:56:51.961Z,51.73
2019-02-07T19:59:25.564Z,52.03
2019-02-07T20:01:55.474Z,52.73
2019-02-07T20:04:25.409Z,48.90
2019-02-07T20:06:55.425Z,52.23
2019-02-07T20:09:25.721Z,47.00
2019-02-07T20:11:55.667Z,48.03
2019-02-07T20:14:25.670Z,52.33
2019-02-07T20:16:55.693Z,50.50
2019-02-07T20:19:25.809Z,54.03
2019-02-07T20:21:55.970Z,48.93
2019-02-07T20:24:26.140Z,43.27
2019-02-07T20:26:56.285Z,44.17
2019-02-07T20:29:26.377Z,44.87
2019-02-07T20:31:56.285Z,42.77
2019-02-07T20:34:26.330Z,45.30
2019-02-07T20:36:56.415Z,43.50
2019-02-07T20:39:27.107Z,37.93
2019-02-07T20:41:57.272Z,42.20
2019-02-07T20:44:27.202Z,43.77
2019-02-07T20:46:57.083Z,38.17
2019-02-07T20:49:27.233Z,37.23
2019-02-07T20:51:57.182Z,34.60
2019-02-07T20:54:27.177Z,38.13
2019-02-07T20:56:57.345Z,33.27
2019-02-07T20:59:27.509Z,33.13
2019-02-07T21:01:57.305Z,30.63
2019-02-07T21:04:27.207Z,30.87
2019-02-07T21:06:57.246Z,31.17
2019-02-07T21:09:27.129Z,33.00
2019-02-07T21:11:57.385Z,34.90
2019-02-07T21:14:27.265Z,32.33
2019-02-07T21:16:57.223Z,32.37
2019-02-07T21:19:27.205Z,29.50
2019-02-07T21:21:57.113Z,29.23
2019-02-07T21:24:28.377Z,32.23
2019-02-07T21:26:58.457Z,31.47
2019-02-07T21:29:28.625Z,27.73
2019-02-07T21:31:58.781Z,25.53
2019-02-07T21:34:28.798Z,24.83
2019-02-07T21:36:58.969Z,24.27
2019-02-07T21:39:29.109Z,24.77
2019-02-07T21:41:59.093Z,28.10
2019-02-07T21:44:29.158Z,27.57
2019-02-07T21:46:59.169Z,24.40
2019-02-07T21:49:29.049Z,22.70
2019-02-07T21:51:58.977Z,25.43
2019-02-07T21:54:28.946Z,21.13
2019-02-07T21:56:58.897Z,25.27
2019-02-07T21:59:28.882Z,20.07
2019-02-07T22:01:58.826Z,22.17
2019-02-07T22:04:28.800Z,23.03
2019-02-07T22:06:58.733Z,22.90
2019-02-07T22:09:28.653Z,21.97
2019-02-07T22:11:58.663Z,20.83
2019-02-07T22:14:28.480Z,18.00
2019-02-07T22:16:58.373Z,20.47
2019-02-07T22:19:28.330Z,19.90
2019-02-07T22:21:58.321Z,21.67
2019-02-07T22:24:28.277Z,18.57
2019-02-07T22:26:58.560Z,18.73
2019-02-07T22:29:28.384Z,16.63
2019-02-07T22:31:58.193Z,13.80
2019-02-07T22:34:28.104Z,17.77
2019-02-07T22:36:58.008Z,12.30
2019-02-07T22:39:27.819Z,15.30
2019-02-07T22:41:57.945Z,13.33
2019-02-07T22:44:27.744Z,13.30
2019-02-07T22:46:57.985Z,14.97
2019-02-07T22:49:27.771Z,13.33
2019-02-07T22:51:57.726Z,12.23
2019-02-07T22:54:27.825Z,11.83
2019-02-07T22:56:58.133Z,11.93
2019-02-07T22:59:28.273Z,13.23
2019-02-07T23:01:58.252Z,12.87
2019-02-07T23:04:29.227Z,12.67
2019-02-07T23:07:10.450Z,13.30
2019-02-07T23:09:40.665Z,15.17
2019-02-07T23:12:10.613Z,16.30
2019-02-07T23:14:40.636Z,13.50
2019-02-07T23:17:10.646Z,19.37
2019-02-07T23:19:40.564Z,17.37
2019-02-07T23:22:10.600Z,19.40
2019-02-07T23:24:40.479Z,13.33
2019-02-07T23:27:10.537Z,15.23
2019-02-07T23:29:41.375Z,15.87
2019-02-07T23:32:11.285Z,12.83
2019-02-07T23:34:41.193Z,18.00
2019-02-07T23:37:11.392Z,16.63
2019-02-07T23:39:41.214Z,16.87
2019-02-07T23:42:11.124Z,16.40
2019-02-07T23:44:41.153Z,12.17
2019-02-07T23:47:10.948Z,16.63
2019-02-07T23:49:40.981Z,13.87
2019-02-07T23:52:11.185Z,14.17
2019-02-07T23:54:41.016Z,13.80
2019-02-07T23:57:10.900Z,16.27
2019-02-07T23:59:40.963Z,15.20
